sensor_id;sensor_type;location;lat;lon;timestamp;P1;durP1;ratioP1;P2;durP2;ratioP2
78324;SDS011;67584;51.400;6.692;2024-03-23T00:52:15;7.63;;;2.75;;
78324;SDS011;67584;51.400;6.692;2024-03-23T00:54:41;7.65;;;3.75;;
78324;SDS011;67584;51.400;6.692;2024-03-23T00:57:07;9.70;;;3.25;;
78324;SDS011;67584;51.400;6.692;2024-03-23T00:59:33;11.48;;;2.97;;
78324;SDS011;67584;51.400;6.692;2024-03-23T01:01:59;8.45;;;2.97;;
78324;SDS011;67584;51.400;6.692;2024-03-23T01:04:24;5.78;;;2.50;;
78324;SDS011;67584;51.400;6.692;2024-03-23T01:06:50;4.78;;;1.63;;
78324;SDS011;67584;51.400;6.692;2024-03-23T01:09:15;4.78;;;1.77;;
78324;SDS011;67584;51.400;6.692;2024-03-23T01:11:41;5.35;;;1.48;;
78324;SDS011;67584;51.400;6.692;2024-03-23T01:14:07;4.32;;;1.65;;
78324;SDS011;67584;51.400;6.692;2024-03-23T01:16:32;5.82;;;2.33;;
78324;SDS011;67584;51.400;6.692;2024-03-23T01:18:58;5.15;;;1.50;;
78324;SDS011;67584;51.400;6.692;2024-03-23T01:21:24;5.20;;;1.80;;
78324;SDS011;67584;51.400;6.692;2024-03-23T01:23:49;5.60;;;1.95;;
78324;SDS011;67584;51.400;6.692;2024-03-23T01:26:15;4.20;;;1.65;;
78324;SDS011;67584;51.400;6.692;2024-03-23T01:28:41;2.50;;;1.70;;
78324;SDS011;67584;51.400;6.692;2024-03-23T01:31:07;3.92;;;1.77;;
78324;SDS011;67584;51.400;6.692;2024-03-23T01:33:32;7.43;;;1.90;;
78324;SDS011;67584;51.400;6.692;2024-03-23T01:35:58;6.05;;;2.25;;
78324;SDS011;67584;51.400;6.692;2024-03-23T01:38:24;5.82;;;1.73;;
78324;SDS011;67584;51.400;6.692;2024-03-23T01:40:49;3.33;;;1.33;;
78324;SDS011;67584;51.400;6.692;2024-03-23T01:43:21;3.17;;;1.73;;
78324;SDS011;67584;51.400;6.692;2024-03-23T01:45:47;3.58;;;1.20;;
78324;SDS011;67584;51.400;6.692;2024-03-23T01:48:12;3.38;;;1.52;;
78324;SDS011;67584;51.400;6.692;2024-03-23T01:50:38;6.05;;;1.90;;
78324;SDS011;67584;51.400;6.692;2024-03-23T01:53:04;5.93;;;2.10;;
78324;SDS011;67584;51.400;6.692;2024-03-23T01:55:32;3.97;;;1.63;;
78324;SDS011;67584;51.400;6.692;2024-03-23T01:57:58;5.75;;;1.63;;
78324;SDS011;67584;51.400;6.692;2024-03-23T02:00:23;6.63;;;2.00;;
78324;SDS011;67584;51.400;6.692;2024-03-23T02:02:50;6.10;;;3.13;;
78324;SDS011;67584;51.400;6.692;2024-03-23T02:05:16;4.45;;;1.88;;
78324;SDS011;67584;51.400;6.692;2024-03-23T02:07:42;7.82;;;1.80;;
78324;SDS011;67584;51.400;6.692;2024-03-23T02:10:08;5.25;;;2.20;;
78324;SDS011;67584;51.400;6.692;2024-03-23T02:12:35;4.18;;;1.75;;
78324;SDS011;67584;51.400;6.692;2024-03-23T02:15:01;6.20;;;1.52;;
78324;SDS011;67584;51.400;6.692;2024-03-23T02:17:29;3.95;;;1.80;;
78324;SDS011;67584;51.400;6.692;2024-03-23T02:19:56;6.22;;;2.35;;
78324;SDS011;67584;51.400;6.692;2024-03-23T02:22:22;5.82;;;2.47;;
78324;SDS011;67584;51.400;6.692;2024-03-23T02:24:47;7.43;;;1.92;;
78324;SDS011;67584;51.400;6.692;2024-03-23T02:27:13;4.82;;;1.90;;
78324;SDS011;67584;51.400;6.692;2024-03-23T02:29:39;3.67;;;1.88;;
78324;SDS011;67584;51.400;6.692;2024-03-23T02:32:04;7.00;;;2.13;;
78324;SDS011;67584;51.400;6.692;2024-03-23T02:34:30;6.32;;;1.52;;
78324;SDS011;67584;51.400;6.692;2024-03-23T02:36:56;4.85;;;1.90;;
78324;SDS011;67584;51.400;6.692;2024-03-23T02:39:22;3.30;;;1.63;;
78324;SDS011;67584;51.400;6.692;2024-03-23T02:41:48;4.75;;;2.00;;
78324;SDS011;67584;51.400;6.692;2024-03-23T02:44:13;8.32;;;1.92;;
78324;SDS011;67584;51.400;6.692;2024-03-23T02:46:39;4.88;;;1.70;;
78324;SDS011;67584;51.400;6.692;2024-03-23T02:49:05;8.23;;;2.30;;
78324;SDS011;67584;51.400;6.692;2024-03-23T02:51:31;6.55;;;2.17;;
78324;SDS011;67584;51.400;6.692;2024-03-23T02:53:57;4.10;;;1.40;;
78324;SDS011;67584;51.400;6.692;2024-03-23T02:56:22;4.22;;;1.27;;
78324;SDS011;67584;51.400;6.692;2024-03-23T02:58:48;5.82;;;1.95;;
78324;SDS011;67584;51.400;6.692;2024-03-23T03:01:14;5.95;;;1.90;;
78324;SDS011;67584;51.400;6.692;2024-03-23T03:03:40;5.43;;;1.80;;
78324;SDS011;67584;51.400;6.692;2024-03-23T03:06:05;3.03;;;1.02;;
78324;SDS011;67584;51.400;6.692;2024-03-23T03:08:31;8.85;;;1.70;;
78324;SDS011;67584;51.400;6.692;2024-03-23T03:10:57;5.30;;;1.77;;
78324;SDS011;67584;51.400;6.692;2024-03-23T03:13:22;6.93;;;2.33;;
78324;SDS011;67584;51.400;6.692;2024-03-23T03:15:48;7.50;;;2.45;;
78324;SDS011;67584;51.400;6.692;2024-03-23T03:18:13;6.72;;;2.20;;
78324;SDS011;67584;51.400;6.692;2024-03-23T03:20:39;4.80;;;2.03;;
78324;SDS011;67584;51.400;6.692;2024-03-23T03:23:06;5.90;;;2.47;;
78324;SDS011;67584;51.400;6.692;2024-03-23T03:25:32;8.88;;;2.67;;
78324;SDS011;67584;51.400;6.692;2024-03-23T03:27:57;7.63;;;2.97;;
78324;SDS011;67584;51.400;6.692;2024-03-23T03:30:24;5.38;;;1.85;;
78324;SDS011;67584;51.400;6.692;2024-03-23T03:32:51;5.75;;;2.15;;
78324;SDS011;67584;51.400;6.692;2024-03-23T03:35:20;2.92;;;1.90;;
78324;SDS011;67584;51.400;6.692;2024-03-23T03:37:46;5.07;;;1.70;;
78324;SDS011;67584;51.400;6.692;2024-03-23T03:40:12;6.80;;;2.25;;
78324;SDS011;67584;51.400;6.692;2024-03-23T03:42:40;5.63;;;2.25;;
78324;SDS011;67584;51.400;6.692;2024-03-23T03:45:06;5.18;;;3.42;;
78324;SDS011;67584;51.400;6.692;2024-03-23T03:47:32;6.68;;;2.00;;
78324;SDS011;67584;51.400;6.692;2024-03-23T03:49:58;4.10;;;1.95;;
78324;SDS011;67584;51.400;6.692;2024-03-23T03:52:23;5.20;;;1.98;;
78324;SDS011;67584;51.400;6.692;2024-03-23T03:54:49;4.35;;;1.60;;
78324;SDS011;67584;51.400;6.692;2024-03-23T03:57:14;6.50;;;2.55;;
78324;SDS011;67584;51.400;6.692;2024-03-23T03:59:40;5.45;;;2.22;;
78324;SDS011;67584;51.400;6.692;2024-03-23T04:02:06;9.68;;;1.95;;
78324;SDS011;67584;51.400;6.692;2024-03-23T04:04:32;3.22;;;1.67;;
78324;SDS011;67584;51.400;6.692;2024-03-23T04:06:58;3.22;;;1.58;;
78324;SDS011;67584;51.400;6.692;2024-03-23T04:09:27;4.78;;;2.15;;
78324;SDS011;67584;51.400;6.692;2024-03-23T04:11:53;4.13;;;1.80;;
78324;SDS011;67584;51.400;6.692;2024-03-23T04:14:19;8.15;;;2.17;;
78324;SDS011;67584;51.400;6.692;2024-03-23T04:16:45;4.40;;;2.08;;
78324;SDS011;67584;51.400;6.692;2024-03-23T04:19:10;3.95;;;2.20;;
78324;SDS011;67584;51.400;6.692;2024-03-23T04:21:37;6.97;;;2.13;;
78324;SDS011;67584;51.400;6.692;2024-03-23T04:24:03;5.65;;;2.15;;
78324;SDS011;67584;51.400;6.692;2024-03-23T04:26:30;4.93;;;1.75;;
78324;SDS011;67584;51.400;6.692;2024-03-23T04:29:05;6.05;;;2.13;;
78324;SDS011;67584;51.400;6.692;2024-03-23T04:31:30;7.28;;;2.17;;
78324;SDS011;67584;51.400;6.692;2024-03-23T04:33:57;5.57;;;2.60;;
78324;SDS011;67584;51.400;6.692;2024-03-23T04:36:22;5.32;;;2.17;;
78324;SDS011;67584;51.400;6.692;2024-03-23T04:38:48;4.93;;;2.55;;
78324;SDS011;67584;51.400;6.692;2024-03-23T04:41:15;5.43;;;2.63;;
78324;SDS011;67584;51.400;6.692;2024-03-23T04:43:41;7.50;;;2.40;;
78324;SDS011;67584;51.400;6.692;2024-03-23T04:46:06;8.07;;;2.85;;
78324;SDS011;67584;51.400;6.692;2024-03-23T04:48:32;6.97;;;2.83;;
78324;SDS011;67584;51.400;6.692;2024-03-23T04:50:57;6.32;;;2.65;;
78324;SDS011;67584;51.400;6.692;2024-03-23T04:53:23;8.50;;;3.05;;
78324;SDS011;67584;51.400;6.692;2024-03-23T04:55:54;6.95;;;2.28;;
78324;SDS011;67584;51.400;6.692;2024-03-23T04:58:21;9.45;;;3.63;;
78324;SDS011;67584;51.400;6.692;2024-03-23T05:00:52;6.97;;;3.45;;
78324;SDS011;67584;51.400;6.692;2024-03-23T05:03:19;7.22;;;3.00;;
78324;SDS011;67584;51.400;6.692;2024-03-23T05:05:46;6.05;;;3.30;;
78324;SDS011;67584;51.400;6.692;2024-03-23T05:08:13;4.57;;;3.00;;
78324;SDS011;67584;51.400;6.692;2024-03-23T05:10:39;8.60;;;3.15;;
78324;SDS011;67584;51.400;6.692;2024-03-23T05:13:06;9.45;;;3.13;;
78324;SDS011;67584;51.400;6.692;2024-03-23T05:15:31;6.80;;;3.17;;
78324;SDS011;67584;51.400;6.692;2024-03-23T05:17:57;5.43;;;3.28;;
78324;SDS011;67584;51.400;6.692;2024-03-23T05:20:23;5.30;;;3.28;;
78324;SDS011;67584;51.400;6.692;2024-03-23T05:22:49;6.65;;;3.00;;
78324;SDS011;67584;51.400;6.692;2024-03-23T05:25:15;4.82;;;2.63;;
78324;SDS011;67584;51.400;6.692;2024-03-23T05:27:41;6.68;;;3.42;;
78324;SDS011;67584;51.400;6.692;2024-03-23T05:30:07;6.45;;;3.67;;
78324;SDS011;67584;51.400;6.692;2024-03-23T05:32:34;8.75;;;3.90;;
78324;SDS011;67584;51.400;6.692;2024-03-23T05:34:59;6.53;;;3.78;;
78324;SDS011;67584;51.400;6.692;2024-03-23T05:37:25;7.20;;;3.60;;
78324;SDS011;67584;51.400;6.692;2024-03-23T05:39:51;9.13;;;3.88;;
78324;SDS011;67584;51.400;6.692;2024-03-23T05:42:17;11.60;;;3.80;;
78324;SDS011;67584;51.400;6.692;2024-03-23T05:44:43;7.72;;;3.30;;
78324;SDS011;67584;51.400;6.692;2024-03-23T05:47:12;8.02;;;3.90;;
78324;SDS011;67584;51.400;6.692;2024-03-23T05:49:39;6.32;;;3.30;;
78324;SDS011;67584;51.400;6.692;2024-03-23T05:54:35;6.50;;;3.45;;
78324;SDS011;67584;51.400;6.692;2024-03-23T05:57:00;9.07;;;3.30;;
78324;SDS011;67584;51.400;6.692;2024-03-23T05:59:27;7.03;;;3.08;;
78324;SDS011;67584;51.400;6.692;2024-03-23T06:01:52;8.25;;;3.83;;
78324;SDS011;67584;51.400;6.692;2024-03-23T06:04:18;7.45;;;3.10;;
78324;SDS011;67584;51.400;6.692;2024-03-23T06:06:44;11.07;;;3.40;;
78324;SDS011;67584;51.400;6.692;2024-03-23T06:09:10;6.90;;;3.97;;
78324;SDS011;67584;51.400;6.692;2024-03-23T06:11:36;6.97;;;3.58;;
78324;SDS011;67584;51.400;6.692;2024-03-23T06:14:02;8.63;;;3.55;;
78324;SDS011;67584;51.400;6.692;2024-03-23T06:16:28;9.02;;;4.65;;
78324;SDS011;67584;51.400;6.692;2024-03-23T06:18:53;11.52;;;4.35;;
78324;SDS011;67584;51.400;6.692;2024-03-23T06:21:20;11.43;;;4.38;;
78324;SDS011;67584;51.400;6.692;2024-03-23T06:23:46;9.55;;;4.20;;
78324;SDS011;67584;51.400;6.692;2024-03-23T06:26:16;10.05;;;5.22;;
78324;SDS011;67584;51.400;6.692;2024-03-23T06:28:46;13.30;;;5.53;;
78324;SDS011;67584;51.400;6.692;2024-03-23T06:31:12;8.13;;;4.65;;
78324;SDS011;67584;51.400;6.692;2024-03-23T06:33:38;10.00;;;4.65;;
78324;SDS011;67584;51.400;6.692;2024-03-23T06:36:04;9.50;;;4.30;;
78324;SDS011;67584;51.400;6.692;2024-03-23T06:38:30;16.10;;;5.88;;
78324;SDS011;67584;51.400;6.692;2024-03-23T06:40:56;11.13;;;5.43;;
78324;SDS011;67584;51.400;6.692;2024-03-23T06:43:23;5.95;;;3.67;;
78324;SDS011;67584;51.400;6.692;2024-03-23T06:45:52;10.27;;;4.97;;
78324;SDS011;67584;51.400;6.692;2024-03-23T06:48:18;12.00;;;5.70;;
78324;SDS011;67584;51.400;6.692;2024-03-23T06:50:44;8.48;;;4.05;;
78324;SDS011;67584;51.400;6.692;2024-03-23T06:53:11;10.18;;;4.65;;
78324;SDS011;67584;51.400;6.692;2024-03-23T06:55:39;9.73;;;4.28;;
78324;SDS011;67584;51.400;6.692;2024-03-23T06:58:05;8.32;;;4.45;;
78324;SDS011;67584;51.400;6.692;2024-03-23T07:00:31;7.82;;;4.35;;
78324;SDS011;67584;51.400;6.692;2024-03-23T07:02:58;11.10;;;4.50;;
78324;SDS011;67584;51.400;6.692;2024-03-23T07:05:24;9.48;;;4.20;;
78324;SDS011;67584;51.400;6.692;2024-03-23T07:07:50;10.07;;;4.22;;
78324;SDS011;67584;51.400;6.692;2024-03-23T07:10:15;12.00;;;4.55;;
78324;SDS011;67584;51.400;6.692;2024-03-23T07:12:41;8.60;;;4.80;;
78324;SDS011;67584;51.400;6.692;2024-03-23T07:15:07;9.45;;;4.07;;
78324;SDS011;67584;51.400;6.692;2024-03-23T07:17:36;13.10;;;4.80;;
78324;SDS011;67584;51.400;6.692;2024-03-23T07:20:02;6.75;;;3.58;;
78324;SDS011;67584;51.400;6.692;2024-03-23T07:22:31;10.75;;;5.93;;
78324;SDS011;67584;51.400;6.692;2024-03-23T07:24:57;9.48;;;3.75;;
78324;SDS011;67584;51.400;6.692;2024-03-23T07:27:25;13.75;;;4.72;;
78324;SDS011;67584;51.400;6.692;2024-03-23T07:29:51;7.43;;;4.53;;
78324;SDS011;67584;51.400;6.692;2024-03-23T07:32:16;10.10;;;5.30;;
78324;SDS011;67584;51.400;6.692;2024-03-23T07:34:42;7.10;;;4.25;;
78324;SDS011;67584;51.400;6.692;2024-03-23T07:37:09;8.23;;;4.43;;
78324;SDS011;67584;51.400;6.692;2024-03-23T07:39:35;5.70;;;3.85;;
78324;SDS011;67584;51.400;6.692;2024-03-23T07:42:01;10.98;;;4.25;;
78324;SDS011;67584;51.400;6.692;2024-03-23T07:44:27;12.27;;;4.32;;
78324;SDS011;67584;51.400;6.692;2024-03-23T07:46:53;9.68;;;3.75;;
78324;SDS011;67584;51.400;6.692;2024-03-23T07:49:19;10.70;;;4.03;;
78324;SDS011;67584;51.400;6.692;2024-03-23T07:51:44;7.00;;;3.30;;
78324;SDS011;67584;51.400;6.692;2024-03-23T07:54:10;5.80;;;3.80;;
78324;SDS011;67584;51.400;6.692;2024-03-23T07:56:36;4.93;;;3.33;;
78324;SDS011;67584;51.400;6.692;2024-03-23T07:59:01;8.13;;;3.10;;
78324;SDS011;67584;51.400;6.692;2024-03-23T08:01:28;9.00;;;3.67;;
78324;SDS011;67584;51.400;6.692;2024-03-23T08:03:54;4.93;;;3.42;;
78324;SDS011;67584;51.400;6.692;2024-03-23T08:06:20;9.50;;;4.07;;
78324;SDS011;67584;51.400;6.692;2024-03-23T08:08:50;9.43;;;4.22;;
78324;SDS011;67584;51.400;6.692;2024-03-23T08:11:25;5.07;;;3.90;;
78324;SDS011;67584;51.400;6.692;2024-03-23T08:13:54;10.10;;;3.42;;
78324;SDS011;67584;51.400;6.692;2024-03-23T08:16:20;9.00;;;3.85;;
78324;SDS011;67584;51.400;6.692;2024-03-23T08:18:46;9.05;;;4.07;;
78324;SDS011;67584;51.400;6.692;2024-03-23T08:21:12;7.97;;;4.50;;
78324;SDS011;67584;51.400;6.692;2024-03-23T08:23:38;8.63;;;3.80;;
78324;SDS011;67584;51.400;6.692;2024-03-23T08:26:08;7.60;;;3.72;;
78324;SDS011;67584;51.400;6.692;2024-03-23T08:28:35;3.70;;;2.17;;
78324;SDS011;67584;51.400;6.692;2024-03-23T08:31:12;2.38;;;1.60;;
78324;SDS011;67584;51.400;6.692;2024-03-23T08:33:39;4.85;;;2.45;;
78324;SDS011;67584;51.400;6.692;2024-03-23T08:36:08;4.30;;;2.38;;
78324;SDS011;67584;51.400;6.692;2024-03-23T08:38:37;6.10;;;2.33;;
78324;SDS011;67584;51.400;6.692;2024-03-23T08:41:03;5.30;;;1.90;;
78324;SDS011;67584;51.400;6.692;2024-03-23T08:43:32;3.80;;;1.88;;
78324;SDS011;67584;51.400;6.692;2024-03-23T08:46:07;5.25;;;1.40;;
78324;SDS011;67584;51.400;6.692;2024-03-23T08:48:35;1.48;;;1.25;;
78324;SDS011;67584;51.400;6.692;2024-03-23T08:51:02;4.38;;;2.05;;
78324;SDS011;67584;51.400;6.692;2024-03-23T08:53:28;4.20;;;2.42;;
78324;SDS011;67584;51.400;6.692;2024-03-23T08:55:58;7.63;;;2.70;;
78324;SDS011;67584;51.400;6.692;2024-03-23T08:58:26;5.22;;;2.60;;
78324;SDS011;67584;51.400;6.692;2024-03-23T09:00:52;6.57;;;3.45;;
78324;SDS011;67584;51.400;6.692;2024-03-23T09:03:21;4.72;;;3.72;;
78324;SDS011;67584;51.400;6.692;2024-03-23T09:05:47;6.38;;;3.72;;
78324;SDS011;67584;51.400;6.692;2024-03-23T09:08:14;6.15;;;3.80;;
78324;SDS011;67584;51.400;6.692;2024-03-23T09:10:39;6.20;;;3.60;;
78324;SDS011;67584;51.400;6.692;2024-03-23T09:13:06;4.43;;;2.63;;
78324;SDS011;67584;51.400;6.692;2024-03-23T09:15:33;5.00;;;3.25;;
78324;SDS011;67584;51.400;6.692;2024-03-23T09:18:00;7.75;;;3.90;;
78324;SDS011;67584;51.400;6.692;2024-03-23T09:20:25;6.57;;;2.67;;
78324;SDS011;67584;51.400;6.692;2024-03-23T09:22:51;6.50;;;3.75;;
78324;SDS011;67584;51.400;6.692;2024-03-23T09:25:17;8.25;;;3.60;;
78324;SDS011;67584;51.400;6.692;2024-03-23T09:27:43;5.43;;;3.08;;
78324;SDS011;67584;51.400;6.692;2024-03-23T09:30:11;8.73;;;4.18;;
78324;SDS011;67584;51.400;6.692;2024-03-23T09:32:38;6.03;;;2.90;;
78324;SDS011;67584;51.400;6.692;2024-03-23T09:35:04;9.30;;;4.47;;
78324;SDS011;67584;51.400;6.692;2024-03-23T09:37:30;7.38;;;3.88;;
78324;SDS011;67584;51.400;6.692;2024-03-23T09:39:55;5.35;;;2.90;;
78324;SDS011;67584;51.400;6.692;2024-03-23T09:42:21;8.73;;;2.95;;
78324;SDS011;67584;51.400;6.692;2024-03-23T09:44:47;8.07;;;3.10;;
78324;SDS011;67584;51.400;6.692;2024-03-23T09:49:41;6.72;;;2.15;;
78324;SDS011;67584;51.400;6.692;2024-03-23T09:52:07;4.32;;;2.30;;
78324;SDS011;67584;51.400;6.692;2024-03-23T09:54:32;2.30;;;1.20;;
78324;SDS011;67584;51.400;6.692;2024-03-23T09:56:58;10.18;;;2.28;;
78324;SDS011;67584;51.400;6.692;2024-03-23T09:59:24;3.85;;;2.20;;
78324;SDS011;67584;51.400;6.692;2024-03-23T10:01:52;5.38;;;2.22;;
78324;SDS011;67584;51.400;6.692;2024-03-23T10:07:12;8.20;;;2.20;;
78324;SDS011;67584;51.400;6.692;2024-03-23T10:09:39;4.10;;;2.00;;
78324;SDS011;67584;51.400;6.692;2024-03-23T10:12:12;6.05;;;2.42;;
78324;SDS011;67584;51.400;6.692;2024-03-23T10:14:42;6.15;;;2.10;;
78324;SDS011;67584;51.400;6.692;2024-03-23T10:19:45;4.30;;;2.10;;
78324;SDS011;67584;51.400;6.692;2024-03-23T10:22:13;7.72;;;2.65;;
78324;SDS011;67584;51.400;6.692;2024-03-23T10:24:39;4.93;;;2.20;;
78324;SDS011;67584;51.400;6.692;2024-03-23T10:27:06;5.15;;;2.47;;
78324;SDS011;67584;51.400;6.692;2024-03-23T10:29:31;6.65;;;2.30;;
78324;SDS011;67584;51.400;6.692;2024-03-23T10:32:10;4.45;;;1.58;;
78324;SDS011;67584;51.400;6.692;2024-03-23T10:34:37;1.48;;;0.90;;
78324;SDS011;67584;51.400;6.692;2024-03-23T10:37:03;4.85;;;0.82;;
78324;SDS011;67584;51.400;6.692;2024-03-23T10:39:33;2.35;;;0.82;;
78324;SDS011;67584;51.400;6.692;2024-03-23T10:42:03;2.40;;;0.90;;
78324;SDS011;67584;51.400;6.692;2024-03-23T10:44:30;11.07;;;1.00;;
78324;SDS011;67584;51.400;6.692;2024-03-23T10:47:06;3.00;;;1.30;;
78324;SDS011;67584;51.400;6.692;2024-03-23T10:49:32;1.73;;;1.52;;
78324;SDS011;67584;51.400;6.692;2024-03-23T10:51:59;4.38;;;1.42;;
78324;SDS011;67584;51.400;6.692;2024-03-23T10:54:26;2.42;;;1.30;;
78324;SDS011;67584;51.400;6.692;2024-03-23T10:57:03;4.40;;;1.50;;
78324;SDS011;67584;51.400;6.692;2024-03-23T10:59:50;1.35;;;1.23;;
78324;SDS011;67584;51.400;6.692;2024-03-23T11:02:20;2.05;;;1.10;;
78324;SDS011;67584;51.400;6.692;2024-03-23T11:04:46;2.25;;;1.65;;
78324;SDS011;67584;51.400;6.692;2024-03-23T11:17:20;5.22;;;2.00;;
78324;SDS011;67584;51.400;6.692;2024-03-23T11:19:56;3.58;;;1.80;;
78324;SDS011;67584;51.400;6.692;2024-03-23T11:25:18;4.07;;;1.83;;
78324;SDS011;67584;51.400;6.692;2024-03-23T11:27:49;3.42;;;1.80;;
78324;SDS011;67584;51.400;6.692;2024-03-23T11:30:26;6.10;;;2.30;;
78324;SDS011;67584;51.400;6.692;2024-03-23T11:32:55;3.30;;;2.00;;
78324;SDS011;67584;51.400;6.692;2024-03-23T11:35:35;3.35;;;1.80;;
78324;SDS011;67584;51.400;6.692;2024-03-23T11:38:05;5.03;;;1.95;;
78324;SDS011;67584;51.400;6.692;2024-03-23T11:40:39;3.38;;;2.33;;
78324;SDS011;67584;51.400;6.692;2024-03-23T11:43:13;3.88;;;1.60;;
78324;SDS011;67584;51.400;6.692;2024-03-23T11:45:41;3.38;;;1.50;;
78324;SDS011;67584;51.400;6.692;2024-03-23T11:48:15;2.08;;;1.67;;
78324;SDS011;67584;51.400;6.692;2024-03-23T11:50:45;3.03;;;1.73;;
78324;SDS011;67584;51.400;6.692;2024-03-23T11:58:14;2.60;;;1.30;;
78324;SDS011;67584;51.400;6.692;2024-03-23T12:00:41;2.97;;;1.52;;
78324;SDS011;67584;51.400;6.692;2024-03-23T12:03:07;2.08;;;1.40;;
78324;SDS011;67584;51.400;6.692;2024-03-23T12:05:32;1.88;;;1.23;;
78324;SDS011;67584;51.400;6.692;2024-03-23T12:10:47;1.42;;;1.33;;
78324;SDS011;67584;51.400;6.692;2024-03-23T12:13:15;2.83;;;1.38;;
78324;SDS011;67584;51.400;6.692;2024-03-23T12:15:42;3.85;;;1.50;;
78324;SDS011;67584;51.400;6.692;2024-03-23T12:18:09;3.08;;;1.45;;
78324;SDS011;67584;51.400;6.692;2024-03-23T12:20:38;4.13;;;1.80;;
78324;SDS011;67584;51.400;6.692;2024-03-23T12:23:05;2.13;;;1.20;;
78324;SDS011;67584;51.400;6.692;2024-03-23T12:25:40;3.60;;;1.40;;
78324;SDS011;67584;51.400;6.692;2024-03-23T12:28:06;4.80;;;2.00;;
78324;SDS011;67584;51.400;6.692;2024-03-23T12:30:36;5.13;;;1.83;;
78324;SDS011;67584;51.400;6.692;2024-03-23T12:33:04;4.32;;;2.20;;
78324;SDS011;67584;51.400;6.692;2024-03-23T12:35:31;3.47;;;1.63;;
78324;SDS011;67584;51.400;6.692;2024-03-23T12:37:57;2.35;;;1.38;;
78324;SDS011;67584;51.400;6.692;2024-03-23T12:40:22;1.98;;;1.35;;
78324;SDS011;67584;51.400;6.692;2024-03-23T12:42:48;2.88;;;1.60;;
78324;SDS011;67584;51.400;6.692;2024-03-23T12:45:14;3.03;;;1.90;;
78324;SDS011;67584;51.400;6.692;2024-03-23T12:47:40;3.42;;;1.50;;
78324;SDS011;67584;51.400;6.692;2024-03-23T12:50:06;1.95;;;1.50;;
78324;SDS011;67584;51.400;6.692;2024-03-23T12:52:32;1.33;;;1.23;;
78324;SDS011;67584;51.400;6.692;2024-03-23T12:54:58;1.88;;;1.20;;
78324;SDS011;67584;51.400;6.692;2024-03-23T12:57:24;1.45;;;1.00;;
78324;SDS011;67584;51.400;6.692;2024-03-23T12:59:51;4.45;;;1.50;;
78324;SDS011;67584;51.400;6.692;2024-03-23T13:02:18;2.95;;;1.45;;
78324;SDS011;67584;51.400;6.692;2024-03-23T13:04:50;2.40;;;1.58;;
78324;SDS011;67584;51.400;6.692;2024-03-23T13:07:20;6.53;;;2.60;;
78324;SDS011;67584;51.400;6.692;2024-03-23T13:09:47;2.95;;;1.83;;
78324;SDS011;67584;51.400;6.692;2024-03-23T13:12:16;2.38;;;1.55;;
78324;SDS011;67584;51.400;6.692;2024-03-23T13:14:44;3.75;;;1.60;;
78324;SDS011;67584;51.400;6.692;2024-03-23T13:17:10;2.40;;;1.70;;
78324;SDS011;67584;51.400;6.692;2024-03-23T13:19:36;2.03;;;1.30;;
78324;SDS011;67584;51.400;6.692;2024-03-23T13:22:01;3.75;;;1.70;;
78324;SDS011;67584;51.400;6.692;2024-03-23T13:24:27;2.83;;;1.40;;
78324;SDS011;67584;51.400;6.692;2024-03-23T13:26:54;2.22;;;1.30;;
78324;SDS011;67584;51.400;6.692;2024-03-23T13:29:20;2.55;;;1.60;;
78324;SDS011;67584;51.400;6.692;2024-03-23T13:31:47;1.33;;;1.17;;
78324;SDS011;67584;51.400;6.692;2024-03-23T13:34:13;1.63;;;1.30;;
78324;SDS011;67584;51.400;6.692;2024-03-23T13:36:43;4.13;;;1.10;;
78324;SDS011;67584;51.400;6.692;2024-03-23T13:39:09;3.42;;;1.23;;
78324;SDS011;67584;51.400;6.692;2024-03-23T13:41:39;1.65;;;1.08;;
78324;SDS011;67584;51.400;6.692;2024-03-23T13:44:06;1.65;;;1.10;;
78324;SDS011;67584;51.400;6.692;2024-03-23T13:46:32;1.25;;;1.00;;
78324;SDS011;67584;51.400;6.692;2024-03-23T13:48:59;1.98;;;0.90;;
78324;SDS011;67584;51.400;6.692;2024-03-23T13:51:25;2.45;;;1.05;;
78324;SDS011;67584;51.400;6.692;2024-03-23T13:53:54;2.08;;;1.20;;
78324;SDS011;67584;51.400;6.692;2024-03-23T13:56:21;2.58;;;1.15;;
78324;SDS011;67584;51.400;6.692;2024-03-23T13:58:48;2.40;;;1.30;;
78324;SDS011;67584;51.400;6.692;2024-03-23T14:01:14;1.13;;;0.98;;
78324;SDS011;67584;51.400;6.692;2024-03-23T14:03:40;1.98;;;1.10;;
78324;SDS011;67584;51.400;6.692;2024-03-23T14:06:07;1.25;;;1.05;;
78324;SDS011;67584;51.400;6.692;2024-03-23T14:08:36;1.40;;;1.10;;
78324;SDS011;67584;51.400;6.692;2024-03-23T14:11:07;1.30;;;1.05;;
78324;SDS011;67584;51.400;6.692;2024-03-23T14:13:35;1.88;;;1.02;;
78324;SDS011;67584;51.400;6.692;2024-03-23T14:16:01;1.40;;;0.88;;
78324;SDS011;67584;51.400;6.692;2024-03-23T14:18:27;1.50;;;1.00;;
78324;SDS011;67584;51.400;6.692;2024-03-23T14:20:56;1.45;;;1.10;;
78324;SDS011;67584;51.400;6.692;2024-03-23T14:23:24;2.63;;;1.77;;
78324;SDS011;67584;51.400;6.692;2024-03-23T14:25:52;4.03;;;1.73;;
78324;SDS011;67584;51.400;6.692;2024-03-23T14:28:21;2.97;;;0.93;;
78324;SDS011;67584;51.400;6.692;2024-03-23T14:30:51;2.15;;;1.10;;
78324;SDS011;67584;51.400;6.692;2024-03-23T14:33:20;4.63;;;1.00;;
78324;SDS011;67584;51.400;6.692;2024-03-23T14:35:56;2.83;;;1.13;;
78324;SDS011;67584;51.400;6.692;2024-03-23T14:38:22;1.50;;;1.38;;
78324;SDS011;67584;51.400;6.692;2024-03-23T14:40:48;5.25;;;1.40;;
78324;SDS011;67584;51.400;6.692;2024-03-23T14:43:14;2.25;;;1.27;;
78324;SDS011;67584;51.400;6.692;2024-03-23T14:48:36;1.52;;;1.30;;
78324;SDS011;67584;51.400;6.692;2024-03-23T14:51:02;2.20;;;1.30;;
78324;SDS011;67584;51.400;6.692;2024-03-23T14:53:38;3.72;;;1.50;;
78324;SDS011;67584;51.400;6.692;2024-03-23T14:56:08;1.40;;;1.27;;
78324;SDS011;67584;51.400;6.692;2024-03-23T14:58:36;1.77;;;1.25;;
78324;SDS011;67584;51.400;6.692;2024-03-23T15:01:03;1.58;;;1.30;;
78324;SDS011;67584;51.400;6.692;2024-03-23T15:03:35;1.40;;;1.23;;
78324;SDS011;67584;51.400;6.692;2024-03-23T15:06:04;1.55;;;1.25;;
78324;SDS011;67584;51.400;6.692;2024-03-23T15:08:31;1.95;;;1.35;;
78324;SDS011;67584;51.400;6.692;2024-03-23T15:11:00;2.33;;;1.30;;
78324;SDS011;67584;51.400;6.692;2024-03-23T15:13:30;2.53;;;1.38;;
78324;SDS011;67584;51.400;6.692;2024-03-23T15:16:03;3.75;;;1.40;;
78324;SDS011;67584;51.400;6.692;2024-03-23T15:18:30;1.92;;;1.23;;
78324;SDS011;67584;51.400;6.692;2024-03-23T15:20:56;2.13;;;1.30;;
78324;SDS011;67584;51.400;6.692;2024-03-23T15:23:44;3.35;;;1.20;;
78324;SDS011;67584;51.400;6.692;2024-03-23T15:26:09;1.90;;;0.98;;
78324;SDS011;67584;51.400;6.692;2024-03-23T15:28:35;4.38;;;1.58;;
78324;SDS011;67584;51.400;6.692;2024-03-23T15:31:27;3.00;;;1.48;;
78324;SDS011;67584;51.400;6.692;2024-03-23T15:33:54;3.03;;;1.40;;
78324;SDS011;67584;51.400;6.692;2024-03-23T15:36:19;2.15;;;1.20;;
78324;SDS011;67584;51.400;6.692;2024-03-23T15:38:45;1.70;;;1.20;;
78324;SDS011;67584;51.400;6.692;2024-03-23T15:41:11;2.17;;;1.15;;
78324;SDS011;67584;51.400;6.692;2024-03-23T15:43:37;2.17;;;1.23;;
78324;SDS011;67584;51.400;6.692;2024-03-23T15:46:03;3.08;;;1.45;;
78324;SDS011;67584;51.400;6.692;2024-03-23T15:48:31;1.92;;;1.05;;
78324;SDS011;67584;51.400;6.692;2024-03-23T15:50:58;2.65;;;1.30;;
78324;SDS011;67584;51.400;6.692;2024-03-23T15:53:25;2.60;;;0.90;;
78324;SDS011;67584;51.400;6.692;2024-03-23T15:55:55;3.47;;;1.20;;
78324;SDS011;67584;51.400;6.692;2024-03-23T15:58:28;2.55;;;1.08;;
78324;SDS011;67584;51.400;6.692;2024-03-23T16:00:58;1.45;;;1.15;;
78324;SDS011;67584;51.400;6.692;2024-03-23T16:03:24;2.05;;;1.02;;
78324;SDS011;67584;51.400;6.692;2024-03-23T16:05:57;4.22;;;1.45;;
78324;SDS011;67584;51.400;6.692;2024-03-23T16:08:25;2.33;;;1.27;;
78324;SDS011;67584;51.400;6.692;2024-03-23T16:10:51;2.45;;;1.50;;